^^
Grace C. Lehan Memorial Weather Station Historical Data
Daily Summary for February 5, 2021 Units:  Both    English   Metric
Daily Weekly Monthly Yearly
  High: Low: Average:
Temperature: 72.2 °F /  22.3 °C 61 °F /  16.1 °C 64.8 °F /  18.2 °C
Dew Point: 67.6 °F /  19.8 °C 59.1 °F /  15.1 °C 62.2 °F /  16.8 °C
Humidity: 96% 84% 91%
Wind Speed: 0mph /  0km/h - 0mph /  0km/h
Wind Gust: 1mph /  1.6km/h - -
Wind- -
Pressure: 29.91 in /  1012.8 hPa 29.81 in /  1009.4 hPa -
Precipitation: 0.00 in /  0 mm    
 
 
Tabular Data for February 5, 2021
Time Temperature Dew Point Pressure Wind Wind Speed Wind Gust Humidity Rainfall Rate (Hourly) solar
00:00 63.1 °F /  17.3 °C 59.8 °F /  15.4 °C 29.90in /  1012.4hPa Calm     89% 0.00in /  0mm 0 W/m2
00:09 62.9 °F /  17.2 °C 59.6 °F /  15.3 °C 29.91in /  1012.8hPa Calm     89% 0.00in /  0mm 0 W/m2
00:14 62.9 °F /  17.2 °C 59.6 °F /  15.3 °C 29.91in /  1012.8hPa Calm     89.1% 0.00in /  0mm 0 W/m2
00:19 62.7 °F /  17.1 °C 59.8 °F /  15.4 °C 29.91in /  1012.8hPa Calm     90% 0.00in /  0mm 0 W/m2
00:24 62.6 °F /  17 °C 59.6 °F /  15.3 °C 29.91in /  1012.8hPa Calm     90% 0.00in /  0mm 0 W/m2
00:29 62.5 °F /  16.9 °C 59.5 °F /  15.3 °C 29.91in /  1012.8hPa Calm     90% 0.00in /  0mm 0 W/m2
00:34 62.4 °F /  16.9 °C 59.4 °F /  15.2 °C 29.91in /  1012.8hPa Calm     90% 0.00in /  0mm 0 W/m2
00:39 62.3 °F /  16.8 °C 59.5 °F /  15.3 °C 29.91in /  1012.8hPa Calm     90.7% 0.00in /  0mm 0 W/m2
00:44 62.2 °F /  16.8 °C 59.6 °F /  15.3 °C 29.91in /  1012.8hPa Calm     91% 0.00in /  0mm 0 W/m2
00:49 62.2 °F /  16.8 °C 59.6 °F /  15.3 °C 29.91in /  1012.8hPa Calm     91% 0.00in /  0mm 0 W/m2
00:54 62.1 °F /  16.7 °C 59.5 °F /  15.3 °C 29.91in /  1012.8hPa Calm     91% 0.00in /  0mm 0 W/m2
00:59 62 °F /  16.7 °C 59.4 °F /  15.2 °C 29.90in /  1012.4hPa Calm     91% 0.00in /  0mm 0 W/m2
01:04 62 °F /  16.7 °C 59.3 °F /  15.2 °C 29.90in /  1012.4hPa Calm     91% 0.00in /  0mm 0 W/m2
01:09 62 °F /  16.7 °C 59.6 °F /  15.3 °C 29.90in /  1012.4hPa Calm     91.8% 0.00in /  0mm 0 W/m2
01:14 62 °F /  16.7 °C 59.6 °F /  15.3 °C 29.90in /  1012.4hPa Calm     92% 0.00in /  0mm 0 W/m2
01:19 61.9 °F /  16.6 °C 59.6 °F /  15.3 °C 29.89in /  1012.1hPa Calm     92% 0.00in /  0mm 0 W/m2
01:24 61.9 °F /  16.6 °C 59.6 °F /  15.3 °C 29.90in /  1012.4hPa Calm     92% 0.00in /  0mm 0 W/m2
01:29 62 °F /  16.7 °C 59.6 °F /  15.3 °C 29.90in /  1012.4hPa Calm     92% 0.00in /  0mm 0 W/m2
01:34 62 °F /  16.7 °C 59.6 °F /  15.3 °C 29.90in /  1012.4hPa Calm     92% 0.00in /  0mm 0 W/m2
01:39 62 °F /  16.7 °C 59.6 °F /  15.3 °C 29.90in /  1012.4hPa Calm     92% 0.00in /  0mm 0 W/m2
01:44 62 °F /  16.7 °C 59.6 °F /  15.3 °C 29.89in /  1012.1hPa Calm     92% 0.00in /  0mm 0 W/m2
01:49 62 °F /  16.7 °C 59.7 °F /  15.4 °C 29.89in /  1012.1hPa Calm     92% 0.00in /  0mm 0 W/m2
01:54 62 °F /  16.7 °C 59.6 °F /  15.3 °C 29.88in /  1011.7hPa Calm     92% 0.00in /  0mm 0 W/m2
01:59 61.9 °F /  16.6 °C 59.6 °F /  15.3 °C 29.88in /  1011.7hPa Calm     92% 0.00in /  0mm 0 W/m2
02:04 61.9 °F /  16.6 °C 59.6 °F /  15.3 °C 29.88in /  1011.7hPa Calm     92% 0.00in /  0mm 0 W/m2
02:09 61.9 °F /  16.6 °C 59.5 °F /  15.3 °C 29.88in /  1011.7hPa Calm     92% 0.00in /  0mm 0 W/m2
02:14 61.8 °F /  16.6 °C 59.5 °F /  15.3 °C 29.88in /  1011.7hPa Calm     92% 0.00in /  0mm 0 W/m2
02:19 61.8 °F /  16.6 °C 59.4 °F /  15.2 °C 29.88in /  1011.7hPa Calm     92% 0.00in /  0mm 0 W/m2
02:24 61.7 °F /  16.5 °C 59.4 °F /  15.2 °C 29.88in /  1011.7hPa Calm     92% 0.00in /  0mm 0 W/m2
02:29 61.7 °F /  16.5 °C 59.3 °F /  15.2 °C 29.88in /  1011.7hPa Calm     92% 0.00in /  0mm 0 W/m2
02:34 61.6 °F /  16.4 °C 59.2 °F /  15.1 °C 29.88in /  1011.7hPa Calm     92% 0.00in /  0mm 0 W/m2
02:39 61.5 °F /  16.4 °C 59.1 °F /  15.1 °C 29.88in /  1011.7hPa Calm     92% 0.00in /  0mm 0 W/m2
02:44 61.4 °F /  16.3 °C 59.1 °F /  15.1 °C 29.88in /  1011.7hPa Calm     92% 0.00in /  0mm 0 W/m2
02:49 61.3 °F /  16.3 °C 59.1 °F /  15.1 °C 29.87in /  1011.4hPa Calm     92.3% 0.00in /  0mm 0 W/m2
02:54 61.3 °F /  16.3 °C 59.3 °F /  15.2 °C 29.87in /  1011.4hPa Calm     93% 0.00in /  0mm 0 W/m2
02:59 61.3 °F /  16.3 °C 59.3 °F /  15.2 °C 29.87in /  1011.4hPa Calm     93% 0.00in /  0mm 0 W/m2
03:04 61.4 °F /  16.3 °C 59.3 °F /  15.2 °C 29.87in /  1011.4hPa Calm     93% 0.00in /  0mm 0 W/m2
03:09 61.4 °F /  16.3 °C 59.4 °F /  15.2 °C 29.86in /  1011.1hPa Calm     93% 0.00in /  0mm 0 W/m2
03:14 61.4 °F /  16.3 °C 59.4 °F /  15.2 °C 29.86in /  1011.1hPa Calm     93% 0.00in /  0mm 0 W/m2
03:19 61.4 °F /  16.3 °C 59.4 °F /  15.2 °C 29.86in /  1011.1hPa Calm     93% 0.00in /  0mm 0 W/m2
03:24 61.4 °F /  16.3 °C 59.4 °F /  15.2 °C 29.86in /  1011.1hPa Calm     93% 0.00in /  0mm 0 W/m2
03:29 61.3 °F /  16.3 °C 59.3 °F /  15.2 °C 29.87in /  1011.4hPa Calm     93% 0.00in /  0mm 0 W/m2
03:34 61.3 °F /  16.3 °C 59.2 °F /  15.1 °C 29.87in /  1011.4hPa Calm     93% 0.00in /  0mm 0 W/m2
03:39 61.2 °F /  16.2 °C 59.2 °F /  15.1 °C 29.87in /  1011.4hPa Calm     93% 0.00in /  0mm 0 W/m2
03:44 61.2 °F /  16.2 °C 59.2 °F /  15.1 °C 29.87in /  1011.4hPa Calm     93% 0.00in /  0mm 0 W/m2
03:49 61.2 °F /  16.2 °C 59.2 °F /  15.1 °C 29.87in /  1011.4hPa Calm     93% 0.00in /  0mm 0 W/m2
03:54 61.2 °F /  16.2 °C 59.2 °F /  15.1 °C 29.87in /  1011.4hPa Calm     93% 0.00in /  0mm 0 W/m2
03:59 61.3 °F /  16.3 °C 59.4 °F /  15.2 °C 29.87in /  1011.4hPa Calm     93.7% 0.00in /  0mm 0 W/m2
04:00 61.3 °F /  16.3 °C 59.6 °F /  15.3 °C 29.87in /  1011.4hPa Calm     94% 0.00in /  0mm 0 W/m2
04:09 61.4 °F /  16.3 °C 59.7 °F /  15.4 °C 29.87in /  1011.4hPa Calm     94% 0.00in /  0mm 0 W/m2
04:14 61.5 °F /  16.4 °C 59.7 °F /  15.4 °C 29.87in /  1011.4hPa Calm     94% 0.00in /  0mm 0 W/m2
04:19 61.5 °F /  16.4 °C 59.8 °F /  15.4 °C 29.86in /  1011.1hPa Calm     94% 0.00in /  0mm 0 W/m2
04:24 61.5 °F /  16.4 °C 59.8 °F /  15.4 °C 29.87in /  1011.4hPa Calm     94% 0.00in /  0mm 0 W/m2
04:29 61.5 °F /  16.4 °C 59.8 °F /  15.4 °C 29.87in /  1011.4hPa Calm     94% 0.00in /  0mm 0 W/m2
04:34 61.5 °F /  16.4 °C 59.8 °F /  15.4 °C 29.87in /  1011.4hPa Calm     94% 0.00in /  0mm 0 W/m2
04:39 61.5 °F /  16.4 °C 59.7 °F /  15.4 °C 29.87in /  1011.4hPa Calm     94% 0.00in /  0mm 0 W/m2
04:44 61.4 °F /  16.3 °C 59.7 °F /  15.4 °C 29.87in /  1011.4hPa Calm     94% 0.00in /  0mm 0 W/m2
04:49 61.4 °F /  16.3 °C 59.7 °F /  15.4 °C 29.87in /  1011.4hPa Calm     94% 0.00in /  0mm 0 W/m2
04:54 61.4 °F /  16.3 °C 59.7 °F /  15.4 °C 29.87in /  1011.4hPa Calm     94% 0.00in /  0mm 0 W/m2
04:59 61.3 °F /  16.3 °C 59.6 °F /  15.3 °C 29.87in /  1011.4hPa Calm     94% 0.00in /  0mm 0 W/m2
05:04 61.3 °F /  16.3 °C 59.6 °F /  15.3 °C 29.87in /  1011.4hPa Calm     94% 0.00in /  0mm 0 W/m2
05:09 61.3 °F /  16.3 °C 59.6 °F /  15.3 °C 29.87in /  1011.4hPa Calm     94% 0.00in /  0mm 0 W/m2
05:14 61.3 °F /  16.3 °C 59.6 °F /  15.3 °C 29.87in /  1011.4hPa Calm     94% 0.00in /  0mm 0 W/m2
05:19 61.3 °F /  16.3 °C 59.6 °F /  15.3 °C 29.87in /  1011.4hPa Calm     94% 0.00in /  0mm 0 W/m2
05:21 61.3 °F /  16.3 °C 59.6 °F /  15.3 °C 29.87in /  1011.4hPa Calm     94% 0.00in /  0mm 0 W/m2
05:30 61.2 °F /  16.2 °C 59.5 °F /  15.3 °C 29.87in /  1011.4hPa Calm     94% 0.00in /  0mm 0 W/m2
06:00 61.2 °F /  16.2 °C 59.5 °F /  15.3 °C 29.87in /  1011.4hPa Calm     94% 0.00in /  0mm 0 W/m2
06:30 61 °F /  16.1 °C 59.3 °F /  15.2 °C 29.87in /  1011.4hPa Calm     94% 0.00in /  0mm 0 W/m2
07:00 61.1 °F /  16.2 °C 59.7 °F /  15.4 °C 29.85in /  1010.7hPa Calm     95% 0.00in /  0mm 10 W/m2
07:30 61.8 °F /  16.6 °C 60.4 °F /  15.8 °C 29.87in /  1011.4hPa Calm     95% 0.00in /  0mm 33 W/m2
08:04 62.7 °F /  17.1 °C 61.3 °F /  16.3 °C 29.87in /  1011.4hPa Calm     95% 0.00in /  0mm 33 W/m2
08:09 62.9 °F /  17.2 °C 61.6 °F /  16.4 °C 29.86in /  1011.1hPa Calm     95.5% 0.00in /  0mm 54 W/m2
08:14 63.1 °F /  17.3 °C 61.9 °F /  16.6 °C 29.86in /  1011.1hPa Calm     96% 0.00in /  0mm 81 W/m2
08:19 63.3 °F /  17.4 °C 62.2 °F /  16.8 °C 29.86in /  1011.1hPa Calm     96% 0.00in /  0mm 107 W/m2
08:24 63.6 °F /  17.6 °C 62.4 °F /  16.9 °C 29.86in /  1011.1hPa Calm     96% 0.00in /  0mm 107 W/m2
08:29 63.8 °F /  17.7 °C 62.6 °F /  17 °C 29.86in /  1011.1hPa Calm     96% 0.00in /  0mm 95 W/m2
08:34 63.9 °F /  17.7 °C 62.7 °F /  17.1 °C 29.86in /  1011.1hPa Calm     95.6% 0.00in /  0mm 69 W/m2
08:39 64 °F /  17.8 °C 62.6 °F /  17 °C 29.86in /  1011.1hPa Calm     95% 0.00in /  0mm 72 W/m2
08:44 64.2 °F /  17.9 °C 62.7 °F /  17.1 °C 29.86in /  1011.1hPa Calm     95% 0.00in /  0mm 69 W/m2
08:49 64.3 °F /  17.9 °C 62.9 °F /  17.2 °C 29.86in /  1011.1hPa Calm     95% 0.00in /  0mm 62 W/m2
08:54 64.5 °F /  18.1 °C 63 °F /  17.2 °C 29.86in /  1011.1hPa Calm     95% 0.00in /  0mm 104 W/m2
08:59 64.7 °F /  18.2 °C 63.3 °F /  17.4 °C 29.86in /  1011.1hPa Calm     95% 0.00in /  0mm 120 W/m2
09:04 65 °F /  18.3 °C 63.5 °F /  17.5 °C 29.86in /  1011.1hPa Calm     95% 0.00in /  0mm 114 W/m2
09:09 65.3 °F /  18.5 °C 63.8 °F /  17.7 °C 29.86in /  1011.1hPa Calm     95% 0.00in /  0mm 100 W/m2
09:14 65.5 °F /  18.6 °C 64.1 °F /  17.8 °C 29.86in /  1011.1hPa Calm     95% 0.00in /  0mm 104 W/m2
09:19 65.8 °F /  18.8 °C 64.3 °F /  17.9 °C 29.86in /  1011.1hPa Calm     95% 0.00in /  0mm 98 W/m2
09:24 66 °F /  18.9 °C 64.2 °F /  17.9 °C 29.86in /  1011.1hPa Calm     94% 0.00in /  0mm 102 W/m2
09:29 66.2 °F /  19 °C 64.4 °F /  18 °C 29.86in /  1011.1hPa Calm     94% 0.00in /  0mm 107 W/m2
09:34 66.4 °F /  19.1 °C 64.5 °F /  18.1 °C 29.87in /  1011.4hPa Calm     93.7% 0.00in /  0mm 86 W/m2
09:39 66.4 °F /  19.1 °C 64.4 °F /  18 °C 29.86in /  1011.1hPa Calm     93% 0.00in /  0mm 70 W/m2
09:44 66.6 °F /  19.2 °C 64.3 °F /  17.9 °C 29.86in /  1011.1hPa Calm     92.4% 0.00in /  0mm 60 W/m2
09:49 66.7 °F /  19.3 °C 64.3 °F /  17.9 °C 29.86in /  1011.1hPa Calm     92% 0.00in /  0mm 121 W/m2
09:54 66.8 °F /  19.3 °C 64.1 °F /  17.8 °C 29.86in /  1011.1hPa Calm     91.1% 0.00in /  0mm 132 W/m2
09:59 67 °F /  19.4 °C 64.5 °F /  18.1 °C 29.86in /  1011.1hPa Calm     91.7% 0.00in /  0mm 114 W/m2
10:04 67.3 °F /  19.6 °C 64.6 °F /  18.1 °C 29.86in /  1011.1hPa Calm     91.2% 0.00in /  0mm 91 W/m2
10:09 67.5 °F /  19.7 °C 64.7 °F /  18.2 °C 29.86in /  1011.1hPa Calm     90.9% 0.00in /  0mm 95 W/m2
10:14 67.6 °F /  19.8 °C 64.5 °F /  18.1 °C 29.86in /  1011.1hPa Calm     90% 0.00in /  0mm 95 W/m2
10:19 67.6 °F /  19.8 °C 64.5 °F /  18.1 °C 29.85in /  1010.7hPa Calm     89.6% 0.00in /  0mm 111 W/m2
10:24 67.7 °F /  19.8 °C 64.3 °F /  17.9 °C 29.86in /  1011.1hPa Calm     89% 0.00in /  0mm 118 W/m2
10:29 67.8 °F /  19.9 °C 64.2 °F /  17.9 °C 29.85in /  1010.7hPa Calm     88.1% 0.00in /  0mm 107 W/m2
10:34 68 °F /  20 °C 64.4 °F /  18 °C 29.86in /  1011.1hPa Calm     88.1% 0.00in /  0mm 69 W/m2
10:39 68.1 °F /  20.1 °C 64.4 °F /  18 °C 29.85in /  1010.7hPa Calm   1mph /  1.6km/h 88% 0.00in /  0mm 93 W/m2
10:44 68.3 °F /  20.2 °C 64.6 °F /  18.1 °C 29.85in /  1010.7hPa Calm   1mph /  1.6km/h 88% 0.00in /  0mm 105 W/m2
10:49 68.4 °F /  20.2 °C 64.8 °F /  18.2 °C 29.85in /  1010.7hPa Calm   1mph /  1.6km/h 88.1% 0.00in /  0mm 111 W/m2
10:54 68.6 °F /  20.3 °C 64.9 °F /  18.3 °C 29.85in /  1010.7hPa Calm   1mph /  1.6km/h 88.1% 0.00in /  0mm 109 W/m2
10:59 68.7 °F /  20.4 °C 65 °F /  18.3 °C 29.85in /  1010.7hPa Calm   1mph /  1.6km/h 88% 0.00in /  0mm 81 W/m2
11:04 68.8 °F /  20.4 °C 65.1 °F /  18.4 °C 29.85in /  1010.7hPa Calm   1mph /  1.6km/h 88% 0.00in /  0mm 62 W/m2
11:09 68.9 °F /  20.5 °C 65.2 °F /  18.4 °C 29.85in /  1010.7hPa Calm     88% 0.00in /  0mm 67 W/m2
11:14 68.9 °F /  20.5 °C 65.2 °F /  18.4 °C 29.85in /  1010.7hPa Calm     88% 0.00in /  0mm 84 W/m2
11:19 69 °F /  20.6 °C 65.7 °F /  18.7 °C 29.85in /  1010.7hPa Calm     89% 0.00in /  0mm 81 W/m2
11:24 69.1 °F /  20.6 °C 65.8 °F /  18.8 °C 29.85in /  1010.7hPa Calm     89% 0.00in /  0mm 72 W/m2
11:29 69.2 °F /  20.7 °C 65.7 °F /  18.7 °C 29.85in /  1010.7hPa Calm     88.7% 0.00in /  0mm 74 W/m2
11:34 69.2 °F /  20.7 °C 65.9 °F /  18.8 °C 29.84in /  1010.4hPa Calm     89% 0.00in /  0mm 88 W/m2
11:39 69.3 °F /  20.7 °C 65.9 °F /  18.8 °C 29.84in /  1010.4hPa Calm     89% 0.00in /  0mm 114 W/m2
11:44 69.4 °F /  20.8 °C 66.2 °F /  19 °C 29.84in /  1010.4hPa Calm     89.7% 0.00in /  0mm 148 W/m2
11:49 69.5 °F /  20.8 °C 66.4 °F /  19.1 °C 29.83in /  1010hPa Calm     90% 0.00in /  0mm 160 W/m2
11:54 69.7 °F /  20.9 °C 66.8 °F /  19.3 °C 29.83in /  1010hPa Calm     90.6% 0.00in /  0mm 193 W/m2
11:59 69.9 °F /  21.1 °C 67.2 °F /  19.6 °C 29.83in /  1010hPa Calm     91% 0.00in /  0mm 200 W/m2
12:09 70.4 °F /  21.3 °C 67.6 °F /  19.8 °C 29.83in /  1010hPa Calm     91% 0.00in /  0mm 118 W/m2
12:14 70.5 °F /  21.4 °C 67.3 °F /  19.6 °C 29.83in /  1010hPa Calm   1mph /  1.6km/h 89.5% 0.00in /  0mm 109 W/m2
12:19 70.5 °F /  21.4 °C 66.8 °F /  19.3 °C 29.83in /  1010hPa Calm   1mph /  1.6km/h 88.2% 0.00in /  0mm 109 W/m2
12:24 70.5 °F /  21.4 °C 66.5 °F /  19.2 °C 29.83in /  1010hPa Calm   1mph /  1.6km/h 87.2% 0.00in /  0mm 118 W/m2
12:29 70.6 °F /  21.4 °C 66.5 °F /  19.2 °C 29.83in /  1010hPa Calm   1mph /  1.6km/h 87% 0.00in /  0mm 134 W/m2
12:34 70.7 °F /  21.5 °C 66.4 °F /  19.1 °C 29.82in /  1009.7hPa Calm   1mph /  1.6km/h 86.4% 0.00in /  0mm 135 W/m2
12:39 70.8 °F /  21.6 °C 66.5 °F /  19.2 °C 29.83in /  1010hPa Calm     86.2% 0.00in /  0mm 130 W/m2
12:44 71 °F /  21.7 °C 66.6 °F /  19.2 °C 29.82in /  1009.7hPa Calm     86% 0.00in /  0mm 139 W/m2
12:49 71.2 °F /  21.8 °C 66.8 °F /  19.3 °C 29.82in /  1009.7hPa Calm     86% 0.00in /  0mm 155 W/m2
12:54 71.3 °F /  21.8 °C 66.9 °F /  19.4 °C 29.82in /  1009.7hPa Calm     86% 0.00in /  0mm 160 W/m2
12:59 71.5 °F /  21.9 °C 67 °F /  19.4 °C 29.82in /  1009.7hPa Calm     85.8% 0.00in /  0mm 160 W/m2
13:04 71.6 °F /  22 °C 67 °F /  19.4 °C 29.82in /  1009.7hPa Calm   1mph /  1.6km/h 85.3% 0.00in /  0mm 134 W/m2
13:09 71.8 °F /  22.1 °C 67 °F /  19.4 °C 29.82in /  1009.7hPa Calm   1mph /  1.6km/h 85% 0.00in /  0mm 107 W/m2
13:14 71.9 °F /  22.2 °C 67.1 °F /  19.5 °C 29.82in /  1009.7hPa Calm   1mph /  1.6km/h 85% 0.00in /  0mm 128 W/m2
13:19 72 °F /  22.2 °C 67.2 °F /  19.6 °C 29.82in /  1009.7hPa Calm   1mph /  1.6km/h 84.7% 0.00in /  0mm 128 W/m2
13:24 72.2 °F /  22.3 °C 67.3 °F /  19.6 °C 29.82in /  1009.7hPa Calm   1mph /  1.6km/h 84.8% 0.00in /  0mm 121 W/m2
13:29 72.2 °F /  22.3 °C 67.1 °F /  19.5 °C 29.82in /  1009.7hPa Calm   1mph /  1.6km/h 84% 0.00in /  0mm 107 W/m2
13:33 72.2 °F /  22.3 °C 67.1 °F /  19.5 °C 29.81in /  1009.4hPa Calm   1mph /  1.6km/h 84% 0.00in /  0mm 118 W/m2
Hartford County Weather
Compliments of Weather Underground - 2 mb